Time;durP1;ratioP1;P1;durP2;ratioP2;P2;SDS_P1;SDS_P2;PMS_P1;PMS_P2;Temp;Humidity;BMP_temperature;BMP_pressure;BME280_temperature;BME280_humidity;BME280_pressure;Samples;Min_cycle;Max_cycle;Signal;HPM_P1;HPM_P2
2022/04/07 00:01:45;;;;;;;4.30;3.13;;;;;;;11.91;68.28;99110.13;10560440;28;20047;-84
2022/04/07 00:06:47;;;;;;;5.10;3.15;;;;;;;12.03;67.99;99092.88;10544077;28;20746;-85
2022/04/07 00:11:49;;;;;;;3.30;2.45;;;;;;;11.90;67.44;99087.78;10561192;28;20063;-85
2022/04/07 00:16:51;;;;;;;4.90;3.10;;;;;;;12.01;67.55;99072.25;10543595;28;20410;-84
2022/04/07 00:21:52;;;;;;;2.40;1.77;;;;;;;12.10;67.04;99057.53;10559973;28;20469;-81
2022/04/07 00:26:54;;;;;;;2.78;2.17;;;;;;;12.01;67.05;99059.34;10559900;28;20081;-82
2022/04/07 00:31:57;;;;;;;3.85;2.83;;;;;;;11.67;68.42;99048.44;10559521;28;20052;-81
2022/04/07 00:36:59;;;;;;;3.72;2.65;;;;;;;11.87;67.14;99040.53;10577553;28;20114;-82
2022/04/07 00:42:00;;;;;;;3.63;2.40;;;;;;;12.27;65.57;99042.72;10577611;28;20066;-86
2022/04/07 00:47:03;;;;;;;2.58;1.80;;;;;;;14.02;61.37;99023.84;10559579;28;20048;-84
2022/04/07 00:52:07;;;;;;;3.40;1.90;;;;;;;12.62;65.16;99036.28;10545209;28;20048;-81
2022/04/07 00:57:10;;;;;;;4.63;2.28;;;;;;;11.93;67.50;99019.81;10564610;28;20502;-86
2022/04/07 01:02:13;;;;;;;4.18;2.33;;;;;;;11.97;66.65;99000.88;10547988;28;20375;-85
2022/04/07 01:07:16;;;;;;;3.95;1.77;;;;;;;12.34;65.25;98995.28;10565233;28;20058;-82
2022/04/07 01:12:18;;;;;;;2.88;1.58;;;;;;;12.29;64.31;98972.97;10564753;28;20047;-81
2022/04/07 01:17:20;;;;;;;2.85;1.27;;;;;;;12.35;63.41;98978.09;10546829;28;20100;-82
2022/04/07 01:22:22;;;;;;;1.63;0.93;;;;;;;12.31;63.17;98974.69;10547133;28;20113;-82
2022/04/07 01:27:24;;;;;;;1.83;0.77;;;;;;;12.34;63.08;98972.06;10564003;28;20036;-82
2022/04/07 01:32:46;;;;;;;2.08;1.35;;;;;;;11.87;65.12;98963.13;10564015;28;20055;-83
2022/04/07 01:37:49;;;;;;;3.38;1.15;;;;;;;12.18;64.50;98962.78;10563928;28;20043;-81
2022/04/07 01:42:53;;;;;;;5.78;1.85;;;;;;;12.17;65.13;98945.59;10563706;28;20051;-82
2022/04/07 01:47:58;;;;;;;1.38;0.57;;;;;;;11.99;66.35;98937.19;10563850;28;20040;-83
2022/04/07 01:53:01;;;;;;;3.70;1.33;;;;;;;11.53;68.05;98935.94;10564168;28;20051;-81
2022/04/07 01:58:03;;;;;;;5.05;1.38;;;;;;;11.66;68.49;98952.13;10563537;28;20548;-85
2022/04/07 02:03:05;;;;;;;1.08;0.45;;;;;;;12.27;66.96;98925.69;10563281;28;20054;-88
2022/04/07 02:08:07;;;;;;;1.55;1.00;;;;;;;11.94;68.49;98926.03;10566942;28;20138;-88
2022/04/07 02:13:09;;;;;;;2.10;1.17;;;;;;;11.98;68.31;98914.00;10571299;28;20151;-87
2022/04/07 02:18:14;;;;;;;1.08;0.95;;;;;;;11.79;67.70;98913.31;10553549;28;20391;-85
2022/04/07 02:23:16;;;;;;;5.30;1.70;;;;;;;11.67;67.97;98889.34;10583787;28;20043;-83
2022/04/07 02:28:18;;;;;;;4.40;1.90;;;;;;;12.58;64.61;98874.44;10553100;28;20392;-86
2022/04/07 02:33:19;;;;;;;2.60;1.63;;;;;;;13.15;63.60;98833.91;10574941;28;20099;-84
2022/04/07 02:38:21;;;;;;;3.75;2.17;;;;;;;12.26;66.73;98843.94;10557995;28;20479;-86
2022/04/07 02:43:23;;;;;;;2.80;1.35;;;;;;;12.33;65.98;98828.31;10558443;28;20043;-85
2022/04/07 02:48:25;;;;;;;2.63;1.65;;;;;;;11.73;66.99;98806.72;10571550;28;20039;-81
2022/04/07 02:53:26;;;;;;;6.40;1.65;;;;;;;11.95;67.05;98801.28;10570631;28;20563;-86
2022/04/07 02:58:28;;;;;;;3.30;1.48;;;;;;;12.88;63.75;98783.56;10571271;28;20442;-83
2022/04/07 03:03:30;;;;;;;4.22;1.45;;;;;;;12.02;66.53;98781.44;10570749;28;20055;-84
2022/04/07 03:08:33;;;;;;;2.75;1.00;;;;;;;12.19;65.50;98768.28;10588683;28;20043;-86
2022/04/07 03:13:36;;;;;;;6.78;2.35;;;;;;;12.14;65.07;98785.59;10552970;28;20142;-86
2022/04/07 03:18:38;;;;;;;4.50;1.58;;;;;;;12.18;64.03;98761.41;10587294;28;20452;-84
2022/04/07 03:23:40;;;;;;;4.80;1.40;;;;;;;12.46;62.75;98751.53;10569130;28;20039;-83
2022/04/07 03:28:41;;;;;;;5.35;1.42;;;;;;;12.70;61.94;98754.56;10569414;28;20437;-83
2022/04/07 03:33:44;;;;;;;5.03;1.58;;;;;;;12.24;62.66;98734.66;10587378;28;20040;-80
2022/04/07 03:38:48;;;;;;;1.27;0.57;;;;;;;12.84;62.10;98741.41;10568334;28;20089;-82
2022/04/07 03:43:50;;;;;;;3.55;1.05;;;;;;;12.45;63.21;98728.31;10586130;28;20039;-83
2022/04/07 03:48:52;;;;;;;2.60;1.02;;;;;;;12.33;62.81;98713.88;10568005;28;20039;-80
2022/04/07 03:53:53;;;;;;;0.98;0.38;;;;;;;12.64;62.14;98698.69;10550795;28;20449;-82
2022/04/07 03:58:56;;;;;;;4.90;1.02;;;;;;;12.44;63.34;98696.44;10551390;28;20039;-80
2022/04/07 04:03:57;;;;;;;7.55;2.20;;;;;;;12.08;64.99;98661.78;10550518;28;20160;-81
2022/04/07 04:08:59;;;;;;;7.15;1.38;;;;;;;12.28;64.72;98653.72;10585310;28;20088;-82
2022/04/07 04:14:00;;;;;;;4.15;1.70;;;;;;;12.17;64.07;98638.41;10550036;28;20083;-80
2022/04/07 04:19:02;;;;;;;10.82;1.02;;;;;;;11.98;63.46;98620.66;10566526;28;20052;-80
2022/04/07 04:24:04;;;;;;;4.38;1.48;;;;;;;12.23;63.77;98620.25;10566511;28;20447;-82
2022/04/07 04:29:05;;;;;;;3.58;1.65;;;;;;;12.13;64.88;98603.19;10565897;28;20453;-80
2022/04/07 04:34:09;;;;;;;4.05;2.20;;;;;;;12.36;64.33;98595.91;10549231;28;20127;-83
2022/04/07 04:39:11;;;;;;;4.70;1.80;;;;;;;11.95;63.70;98576.78;10548430;28;20044;-84
2022/04/07 04:44:13;;;;;;;4.28;1.05;;;;;;;12.47;62.97;98545.78;10570871;28;20065;-82
2022/04/07 04:49:14;;;;;;;6.88;1.77;;;;;;;12.04;62.84;98519.88;10583157;28;20040;-80
2022/04/07 04:54:16;;;;;;;5.25;1.45;;;;;;;12.15;62.59;98488.72;10548449;28;20524;-83
2022/04/07 04:59:17;;;;;;;3.17;0.90;;;;;;;12.04;61.69;98445.03;10547779;28;20093;-81
2022/04/07 05:04:19;;;;;;;4.53;1.27;;;;;;;12.35;60.89;98465.09;10547812;28;20419;-82
2022/04/07 05:09:25;;;;;;;3.08;1.17;;;;;;;12.26;60.92;98449.78;10547503;28;20071;-81
2022/04/07 05:14:29;;;;;;;3.60;1.20;;;;;;;12.21;60.92;98451.63;10547879;28;20048;-81
2022/04/07 05:19:31;;;;;;;5.35;1.40;;;;;;;12.27;60.11;98454.06;10564369;28;20502;-80
2022/04/07 05:24:33;;;;;;;3.22;1.08;;;;;;;12.41;60.55;98447.75;10563788;28;20101;-81
2022/04/07 05:29:35;;;;;;;1.15;0.65;;;;;;;12.17;61.62;98431.91;10546454;28;20067;-80
2022/04/07 05:34:37;;;;;;;4.63;1.30;;;;;;;12.35;61.85;98413.44;10547158;28;20086;-82
2022/04/07 05:39:38;;;;;;;1.67;0.68;;;;;;;12.61;61.85;98412.03;10563060;28;20120;-81
2022/04/07 05:44:40;;;;;;;4.15;1.08;;;;;;;12.46;63.07;98402.06;10563134;28;20047;-80
2022/04/07 05:49:41;;;;;;;4.50;1.60;;;;;;;12.36;64.17;98381.59;10563113;28;20092;-85
2022/04/07 05:54:43;;;;;;;2.03;1.13;;;;;;;12.25;65.15;98370.63;10564098;28;20055;-79
2022/04/07 05:59:45;;;;;;;3.22;1.30;;;;;;;12.01;65.52;98326.41;10563030;28;20048;-89
2022/04/07 06:04:47;;;;;;;2.72;1.17;;;;;;;12.22;66.07;98350.91;10569375;28;20074;-82
2022/04/07 06:09:48;;;;;;;1.95;1.25;;;;;;;11.89;65.74;98285.34;10571117;28;20551;-82
2022/04/07 06:14:50;;;;;;;1.88;1.05;;;;;;;12.19;65.49;98309.69;10554104;28;20047;-83
2022/04/07 06:19:56;;;;;;;1.48;0.82;;;;;;;12.98;70.64;98292.31;10554747;28;20497;-80
2022/04/07 06:24:58;;;;;;;3.88;1.80;;;;;;;12.26;66.16;98302.63;10569990;28;20051;-81
2022/04/07 06:30:07;;;;;;;2.00;1.60;;;;;;;13.00;64.22;98277.59;10553081;28;20039;-86
2022/04/07 06:35:12;;;;;;;4.03;2.03;;;;;;;12.21;67.40;98268.34;10550834;28;20113;-85
2022/04/07 06:40:14;;;;;;;3.97;2.08;;;;;;;11.48;70.40;98232.94;10581465;28;20048;-83
2022/04/07 06:45:16;;;;;;;2.22;1.45;;;;;;;14.04;61.39;98242.78;10567242;28;20101;-85
2022/04/07 06:50:18;;;;;;;4.20;2.05;;;;;;;12.52;66.41;98239.22;10535182;28;20084;-91
2022/04/07 06:55:21;;;;;;;2.63;1.70;;;;;;;12.11;68.14;98233.28;10553675;28;20047;-91
2022/04/07 07:00:34;;;;;;;3.65;1.92;;;;;;;11.78;68.97;98236.56;10549513;28;20047;-80
2022/04/07 07:05:43;;;;;;;3.33;1.95;;;;;;;12.99;64.64;98220.78;10557730;28;20043;-87
2022/04/07 07:11:11;;;;;;;3.33;2.20;;;;;;;11.98;67.39;98207.78;10569061;28;20054;-87
2022/04/07 07:16:13;;;;;;;3.13;1.55;;;;;;;12.23;67.63;98191.72;10550294;28;20044;-84
2022/04/07 07:21:15;;;;;;;2.50;1.02;;;;;;;11.95;68.18;98205.22;10568178;28;20047;-86
2022/04/07 07:26:20;;;;;;;3.17;0.98;;;;;;;11.91;68.37;98175.25;10550625;28;20043;-82
2022/04/07 07:31:21;;;;;;;13.63;0.85;;;;;;;12.03;68.21;98180.13;10548503;28;20050;-78
2022/04/07 07:36:23;;;;;;;3.67;0.75;;;;;;;12.22;68.09;98215.84;10586202;28;20031;-82
2022/04/07 07:41:25;;;;;;;0.00;0.00;;;;;;;9.42;65.08;98252.50;10585810;28;20039;-83
2022/04/07 07:46:29;;;;;;;0.00;0.00;;;;;;;8.65;67.74;98287.53;10564002;28;20047;-86
2022/04/07 07:51:31;;;;;;;0.00;0.00;;;;;;;7.81;69.17;98292.34;10551794;28;20051;-87
2022/04/07 07:56:32;;;;;;;0.00;0.00;;;;;;;8.39;68.02;98264.63;10550630;28;20036;-85
2022/04/07 08:01:43;;;;;;;0.00;0.00;;;;;;;9.16;65.49;98228.00;10544561;28;20134;-86
2022/04/07 08:06:47;;;;;;;0.00;0.00;;;;;;;8.43;67.61;98215.00;10549262;28;20043;-84
2022/04/07 08:11:51;;;;;;;0.00;0.00;;;;;;;8.92;67.42;98217.97;10539461;28;20169;-85
2022/04/07 08:16:53;;;;;;;0.00;0.00;;;;;;;8.61;67.70;98233.69;10547435;28;20040;-84
2022/04/07 08:21:55;;;;;;;0.00;0.00;;;;;;;8.64;68.65;98251.63;10547513;28;20096;-85
2022/04/07 08:26:56;;;;;;;0.00;0.00;;;;;;;8.57;69.63;98248.25;10564982;28;20100;-87
2022/04/07 08:31:58;;;;;;;0.32;0.30;;;;;;;8.53;69.63;98255.13;10548869;28;20504;-86
2022/04/07 08:36:59;;;;;;;0.00;0.00;;;;;;;8.43;69.88;98235.53;10565825;28;20077;-85
2022/04/07 08:42:04;;;;;;;0.00;0.00;;;;;;;8.76;68.02;98233.53;10564284;28;20393;-85
2022/04/07 08:47:06;;;;;;;0.00;0.00;;;;;;;9.25;67.25;98213.34;10583008;28;20044;-86
2022/04/07 08:52:08;;;;;;;0.00;0.00;;;;;;;9.57;67.11;98165.81;10565233;28;20089;-85
2022/04/07 08:57:10;;;;;;;0.20;0.10;;;;;;;9.36;67.80;98162.66;10565439;28;20574;-85
2022/04/07 09:02:12;;;;;;;0.20;0.13;;;;;;;9.35;69.60;98178.94;10564607;28;20044;-84
2022/04/07 09:07:14;;;;;;;0.15;0.10;;;;;;;9.09;69.90;98169.84;10564185;28;20039;-84
2022/04/07 09:12:25;;;;;;;0.38;0.30;;;;;;;10.51;68.84;98158.34;10546685;28;20060;-82
2022/04/07 09:17:27;;;;;;;1.35;0.93;;;;;;;10.45;68.20;98157.59;10563537;28;20379;-84
2022/04/07 09:22:30;;;;;;;1.05;0.68;;;;;;;10.95;67.74;98161.81;10563696;28;20048;-81
2022/04/07 09:27:31;;;;;;;1.40;0.43;;;;;;;11.72;68.18;98165.34;10564087;28;20043;-80
2022/04/07 09:32:42;;;;;;;0.52;0.52;;;;;;;11.09;68.84;98159.81;10563785;28;20071;-81
2022/04/07 09:37:43;;;;;;;1.40;0.80;;;;;;;11.44;68.13;98159.97;10563182;28;20105;-80
2022/04/07 09:42:45;;;;;;;0.47;0.47;;;;;;;12.53;65.56;98155.69;10563476;28;20056;-80
2022/04/07 09:47:50;;;;;;;1.20;0.63;;;;;;;11.96;66.18;98173.38;10563172;28;20051;-80
2022/04/07 09:53:02;;;;;;;1.10;0.60;;;;;;;11.91;65.05;98170.06;10563484;28;20047;-81
2022/04/07 09:58:08;;;;;;;0.20;0.17;;;;;;;12.02;64.35;98183.63;10563243;28;20054;-83
2022/04/07 10:03:13;;;;;;;1.02;0.68;;;;;;;11.51;64.00;98181.28;10581041;28;20048;-82
2022/04/07 10:08:16;;;;;;;0.55;0.45;;;;;;;12.56;61.81;98173.66;10545943;28;20052;-82
2022/04/07 10:13:18;;;;;;;1.55;0.80;;;;;;;13.14;62.32;98157.47;10545750;28;20052;-81
2022/04/07 10:18:31;;;;;;;1.67;0.50;;;;;;;12.54;57.03;98160.81;10545974;28;20048;-81
2022/04/07 10:24:03;;;;;;;1.48;0.85;;;;;;;12.90;56.70;98162.44;10545863;28;20052;-81
2022/04/07 10:29:04;;;;;;;0.65;0.28;;;;;;;13.43;58.11;98153.22;10562443;28;20043;-80
2022/04/07 10:34:07;;;;;;;3.20;0.75;;;;;;;13.60;56.41;98142.38;10562109;28;20172;-81
2022/04/07 10:39:12;;;;;;;0.57;0.20;;;;;;;13.40;57.01;98142.97;10520031;28;20139;-80
2022/04/07 10:44:19;;;;;;;3.05;0.45;;;;;;;13.05;55.64;98156.00;10520781;28;20048;-80
2022/04/07 10:49:25;;;;;;;0.75;0.20;;;;;;;12.82;56.14;98160.06;10559123;28;20039;-82
2022/04/07 10:54:30;;;;;;;2.17;0.20;;;;;;;12.21;55.68;98162.50;10569584;28;20043;-83
2022/04/07 10:59:34;;;;;;;0.20;0.10;;;;;;;12.18;53.64;98165.16;10552443;28;20104;-81
2022/04/07 11:04:39;;;;;;;0.65;0.38;;;;;;;12.15;53.69;98168.66;10552317;28;20537;-81
2022/04/07 11:10:11;;;;;;;1.80;0.28;;;;;;;12.13;52.74;98206.59;10587011;28;20044;-81
2022/04/07 11:15:17;;;;;;;0.45;0.00;;;;;;;13.61;51.05;98186.28;10568644;28;20047;-81
2022/04/07 11:20:24;;;;;;;2.08;0.40;;;;;;;12.45;52.36;98197.19;10568346;28;20039;-81
2022/04/07 11:25:31;;;;;;;1.67;0.43;;;;;;;12.61;51.86;98202.81;10551967;28;20451;-81
2022/04/07 11:31:04;;;;;;;2.92;0.35;;;;;;;12.47;51.75;98208.34;10550893;28;20067;-83
2022/04/07 11:36:12;;;;;;;1.42;0.28;;;;;;;12.79;50.69;98222.16;10566243;28;20055;-82
2022/04/07 11:41:16;;;;;;;1.20;0.73;;;;;;;12.25;51.82;98257.03;10544625;28;20070;-81
2022/04/07 11:46:26;;;;;;;0.98;0.10;;;;;;;12.10;53.13;98254.84;10544684;28;20048;-83
2022/04/07 11:51:34;;;;;;;4.63;0.47;;;;;;;12.00;51.08;98267.94;10566676;28;20514;-81
2022/04/07 11:56:38;;;;;;;2.38;0.30;;;;;;;12.22;52.25;98251.97;10566126;28;20486;-83
2022/04/07 12:01:43;;;;;;;10.32;0.88;;;;;;;11.86;52.26;98267.38;10565366;28;20047;-80
2022/04/07 12:06:46;;;;;;;1.50;1.40;;;;;;;11.81;52.12;98282.09;10548852;28;20086;-81
2022/04/07 12:11:49;;;;;;;0.57;0.15;;;;;;;12.02;52.04;98280.81;10563066;28;20075;-81
2022/04/07 12:16:51;;;;;;;0.28;0.10;;;;;;;12.26;51.46;98279.41;10548622;28;20197;-80
2022/04/07 12:21:55;;;;;;;5.93;1.45;;;;;;;11.89;51.34;98275.03;10565759;28;20052;-79
2022/04/07 12:27:00;;;;;;;3.15;0.63;;;;;;;11.69;51.95;98290.97;10565603;28;20070;-79
2022/04/07 12:32:04;;;;;;;0.52;0.20;;;;;;;12.51;52.12;98294.31;10552383;28;20101;-77
2022/04/07 12:37:06;;;;;;;2.03;0.35;;;;;;;12.19;51.31;98298.50;10582809;28;20048;-79
2022/04/07 12:42:10;;;;;;;6.47;0.98;;;;;;;12.32;50.51;98299.91;10564187;28;20533;-80
2022/04/07 12:47:17;;;;;;;1.65;0.50;;;;;;;12.44;50.43;98297.94;10564333;28;20051;-79
2022/04/07 12:52:19;;;;;;;2.08;0.80;;;;;;;12.11;52.20;98300.41;10563777;28;20506;-81
2022/04/07 12:57:29;;;;;;;3.92;1.02;;;;;;;11.89;51.90;98311.16;10576044;28;20075;-79
2022/04/07 13:02:56;;;;;;;5.60;0.98;;;;;;;11.81;52.50;98319.06;10557835;28;20044;-77
2022/04/07 13:08:00;;;;;;;1.15;0.28;;;;;;;12.53;51.65;98320.97;10554628;28;20047;-80
2022/04/07 13:13:02;;;;;;;1.45;0.63;;;;;;;12.79;50.77;98322.06;10547905;28;20047;-77
2022/04/07 13:18:13;;;;;;;3.10;0.88;;;;;;;12.85;50.07;98321.91;10553334;28;20126;-81
2022/04/07 13:23:15;;;;;;;2.22;0.73;;;;;;;12.64;50.26;98326.72;10562595;28;20089;-78
2022/04/07 13:28:16;;;;;;;1.98;0.43;;;;;;;12.86;49.44;98328.78;10538071;28;20082;-78
2022/04/07 13:33:18;;;;;;;1.00;0.55;;;;;;;13.06;48.77;98307.59;10568172;28;20119;-79
2022/04/07 13:38:22;;;;;;;1.33;0.43;;;;;;;12.91;48.02;98324.38;10577427;28;20036;-78
2022/04/07 13:43:26;;;;;;;2.15;0.30;;;;;;;12.77;47.89;98326.44;10562357;28;20418;-80
2022/04/07 13:48:29;;;;;;;2.38;1.00;;;;;;;12.64;48.20;98326.72;10561703;28;20379;-77
2022/04/07 13:53:30;;;;;;;5.50;1.55;;;;;;;12.54;46.77;98351.09;10562048;28;20044;-80
2022/04/07 13:58:32;;;;;;;2.83;0.50;;;;;;;12.76;47.42;98340.25;10546922;28;20158;-80
2022/04/07 14:03:33;;;;;;;6.57;1.33;;;;;;;12.56;46.75;98345.88;10574925;28;20043;-83
2022/04/07 14:08:35;;;;;;;3.45;0.80;;;;;;;12.91;47.05;98347.63;10544017;28;20039;-77
2022/04/07 14:13:36;;;;;;;8.55;0.80;;;;;;;12.54;45.04;98341.59;10579664;28;20036;-83
2022/04/07 14:18:38;;;;;;;1.52;0.45;;;;;;;13.20;46.50;98348.63;10579265;28;20036;-79
2022/04/07 14:23:40;;;;;;;3.10;0.73;;;;;;;13.42;48.13;98356.66;10565080;28;20567;-78
2022/04/07 14:28:41;;;;;;;2.08;0.30;;;;;;;13.41;47.85;98364.47;10553963;28;20075;-79
2022/04/07 14:33:44;;;;;;;0.57;0.22;;;;;;;12.99;47.66;98368.91;10589327;28;20056;-79
2022/04/07 14:38:46;;;;;;;3.35;0.43;;;;;;;12.95;48.14;98377.66;10570447;28;20101;-78
2022/04/07 14:43:48;;;;;;;6.20;0.80;;;;;;;12.72;46.80;98385.09;10570225;28;20056;-79
2022/04/07 14:48:54;;;;;;;4.82;1.02;;;;;;;12.42;47.68;98377.16;10588210;28;20578;-75
2022/04/07 14:53:56;;;;;;;3.67;1.63;;;;;;;12.66;48.23;98376.63;10552586;28;20475;-79
2022/04/07 14:58:58;;;;;;;4.60;1.15;;;;;;;12.74;48.50;98383.34;10569509;28;20035;-79
2022/04/07 15:04:00;;;;;;;3.67;0.70;;;;;;;13.26;48.38;98374.31;10567700;28;20124;-79
2022/04/07 15:09:03;;;;;;;5.18;0.98;;;;;;;12.37;48.15;98365.22;10536533;28;20411;-77
2022/04/07 15:14:04;;;;;;;6.50;1.10;;;;;;;12.44;48.77;98381.41;10569089;28;20054;-78
2022/04/07 15:19:07;;;;;;;3.08;0.40;;;;;;;12.52;49.99;98415.66;10568097;28;20040;-79
2022/04/07 15:24:10;;;;;;;3.28;0.82;;;;;;;12.21;49.73;98400.81;10568475;28;20135;-79
2022/04/07 15:29:12;;;;;;;0.75;0.57;;;;;;;11.45;54.52;98408.28;10561294;28;20044;-80
2022/04/07 15:34:14;;;;;;;6.32;0.90;;;;;;;11.32;55.19;98410.25;10585383;28;20097;-81
2022/04/07 15:39:15;;;;;;;12.48;1.52;;;;;;;11.69;54.88;98443.13;10567547;28;20043;-79
2022/04/07 15:44:18;;;;;;;0.98;0.45;;;;;;;9.63;61.92;98502.50;10561986;28;20077;-80
2022/04/07 15:49:19;;;;;;;0.00;0.00;;;;;;;9.45;61.95;98491.50;10567551;28;20070;-79
2022/04/07 15:54:21;;;;;;;0.00;0.00;;;;;;;9.72;60.52;98499.81;10567608;28;20055;-79
2022/04/07 15:59:23;;;;;;;0.00;0.00;;;;;;;9.57;60.87;98559.09;10566665;28;20047;-79
2022/04/07 16:04:24;;;;;;;1.15;0.40;;;;;;;8.19;67.19;98560.59;10559098;28;20044;-83
2022/04/07 16:09:26;;;;;;;0.10;0.10;;;;;;;8.35;67.25;98560.56;10551357;28;20482;-88
2022/04/07 16:14:28;;;;;;;0.10;0.00;;;;;;;9.98;62.00;98542.44;10551069;28;20402;-82
2022/04/07 16:19:30;;;;;;;1.02;0.40;;;;;;;9.01;65.53;98573.13;10563679;28;20044;-83
2022/04/07 16:24:32;;;;;;;0.00;0.00;;;;;;;9.13;65.92;98554.25;10538768;28;20058;-85
2022/04/07 16:29:36;;;;;;;0.30;0.10;;;;;;;8.99;66.20;98558.59;10545568;28;20040;-85
2022/04/07 16:34:38;;;;;;;0.13;0.05;;;;;;;9.26;65.63;98547.31;10560258;28;20392;-82
2022/04/07 16:39:45;;;;;;;0.10;0.10;;;;;;;9.52;64.77;98528.28;10554260;28;20058;-82
2022/04/07 16:45:50;;;;;;;1.05;0.40;;;;;;;9.61;64.64;98571.06;10531172;28;20048;-84
2022/04/07 16:50:52;;;;;;;0.45;0.20;;;;;;;9.00;65.10;98573.16;10559647;28;20127;-86
2022/04/07 16:55:59;;;;;;;4.53;0.20;;;;;;;8.87;65.37;98560.38;10541854;28;20043;-85
2022/04/07 17:01:01;;;;;;;0.00;0.00;;;;;;;9.09;66.19;98570.53;10563353;28;20040;-82
2022/04/07 17:06:06;;;;;;;0.35;0.30;;;;;;;9.23;66.77;98572.16;10565307;28;20047;-83
2022/04/07 17:11:07;;;;;;;0.00;0.00;;;;;;;8.62;67.17;98599.84;10543959;28;20442;-88
2022/04/07 17:16:10;;;;;;;0.20;0.17;;;;;;;9.10;66.04;98612.47;10544157;28;20043;-83
2022/04/07 17:21:12;;;;;;;0.90;0.30;;;;;;;8.21;67.58;98651.22;10541355;28;20106;-86
2022/04/07 17:26:14;;;;;;;0.10;0.10;;;;;;;8.06;69.91;98692.25;10517943;28;20052;-89
2022/04/07 17:32:14;;;;;;;0.03;0.03;;;;;;;-146.30;100.00;58188.94;10537496;28;20040;-87
2022/04/07 17:38:14;;;;;;;0.00;0.00;;;;;;;-146.30;100.00;58188.94;10555370;28;20048;-82
2022/04/07 17:44:14;;;;;;;2.97;0.20;;;;;;;-146.30;100.00;58188.94;10563235;28;20510;-85
2022/04/07 17:50:14;;;;;;;0.10;0.10;;;;;;;-146.30;100.00;58188.94;10546766;28;20077;-81
2022/04/07 17:57:17;;;;;;;0.95;0.40;;;;;;;-146.30;100.00;58188.94;10563786;28;20085;-81
2022/04/07 18:02:19;;;;;;;0.00;0.00;;;;;;;8.53;67.20;98678.56;10572226;28;20108;-81
2022/04/07 18:07:28;;;;;;;0.88;0.30;;;;;;;8.50;67.00;98672.59;10590655;28;20401;-80
2022/04/07 18:12:31;;;;;;;0.30;0.20;;;;;;;8.61;66.89;98660.59;10535714;28;20078;-80
2022/04/07 18:17:33;;;;;;;1.27;0.28;;;;;;;8.77;66.16;98674.25;10554672;28;20051;-80
2022/04/07 18:22:34;;;;;;;0.35;0.10;;;;;;;8.99;65.10;98661.34;10571361;28;20459;-80
2022/04/07 18:27:42;;;;;;;4.55;0.80;;;;;;;8.80;65.64;98666.53;10555008;28;20047;-80
2022/04/07 18:32:44;;;;;;;1.40;0.15;;;;;;;8.72;65.52;98678.53;10571454;28;20044;-79
2022/04/07 18:37:45;;;;;;;1.42;0.40;;;;;;;9.04;64.95;98690.44;10588907;28;20065;-79
2022/04/07 18:42:49;;;;;;;2.10;0.45;;;;;;;9.16;67.67;98756.31;10590129;28;20039;-87
2022/04/07 18:47:52;;;;;;;3.20;0.22;;;;;;;8.11;70.23;98785.44;10549810;28;20402;-88
2022/04/07 18:52:55;;;;;;;0.00;0.00;;;;;;;8.11;69.19;98767.50;10552722;28;20117;-85
2022/04/07 18:57:59;;;;;;;0.08;0.08;;;;;;;8.20;69.91;98766.63;10564294;28;20040;-83
2022/04/07 19:03:00;;;;;;;0.00;0.00;;;;;;;8.28;69.00;98774.34;10587557;28;20096;-83
2022/04/07 19:08:02;;;;;;;0.35;0.03;;;;;;;8.24;67.96;98764.06;10570068;28;20097;-83
2022/04/07 19:13:04;;;;;;;0.13;0.10;;;;;;;8.31;67.95;98774.34;10549301;28;20048;-83
2022/04/07 19:18:48;;;;;;;0.10;0.10;;;;;;;8.39;67.99;98782.91;10528235;28;20495;-80
2022/04/07 19:23:50;;;;;;;0.60;0.30;;;;;;;8.62;67.02;98790.66;10563783;28;20123;-80
2022/04/07 19:28:52;;;;;;;0.10;0.10;;;;;;;8.80;66.68;98830.88;10567672;28;20434;-83
2022/04/07 19:33:53;;;;;;;0.22;0.22;;;;;;;9.04;67.90;98860.81;10572597;28;20090;-83
2022/04/07 19:38:55;;;;;;;1.55;0.43;;;;;;;8.62;67.84;98859.97;10565101;28;20067;-82
2022/04/07 19:43:56;;;;;;;0.22;0.20;;;;;;;8.39;67.93;98870.16;10542660;28;20051;-82
2022/04/07 19:48:58;;;;;;;1.50;0.30;;;;;;;8.32;66.82;98863.28;10553952;28;20036;-83
2022/04/07 19:54:00;;;;;;;0.10;0.10;;;;;;;8.51;66.10;98870.22;10528847;28;20048;-85
2022/04/07 19:59:01;;;;;;;4.20;0.40;;;;;;;8.67;65.37;98888.22;10566965;28;20040;-86
2022/04/07 20:04:03;;;;;;;0.10;0.10;;;;;;;8.88;64.25;98895.94;10546369;28;20492;-84
2022/04/07 20:09:05;;;;;;;0.43;0.20;;;;;;;8.84;64.40;98899.34;10527003;28;20105;-85
2022/04/07 20:14:06;;;;;;;0.08;0.08;;;;;;;8.94;63.69;98930.16;10560154;28;20079;-83
2022/04/07 20:19:10;;;;;;;0.10;0.10;;;;;;;8.69;65.63;98950.66;10552330;28;20048;-83
2022/04/07 20:24:12;;;;;;;0.20;0.20;;;;;;;8.69;65.92;98963.50;10514814;28;20051;-84
2022/04/07 20:29:13;;;;;;;0.10;0.10;;;;;;;8.99;65.73;98970.41;10555031;28;20459;-85
2022/04/07 20:34:16;;;;;;;3.05;0.40;;;;;;;9.09;64.35;98971.28;10517959;28;20323;-84
2022/04/07 20:39:17;;;;;;;0.45;0.30;;;;;;;9.16;64.58;98973.00;10545746;28;20043;-84
2022/04/07 20:44:19;;;;;;;0.08;0.08;;;;;;;9.00;65.57;98981.53;10557517;28;20399;-85
2022/04/07 20:49:21;;;;;;;0.90;0.30;;;;;;;9.03;65.05;99007.22;10542684;28;20136;-84
2022/04/07 20:54:22;;;;;;;0.98;0.40;;;;;;;8.76;66.00;99008.88;10564501;28;20163;-84
2022/04/07 20:59:24;;;;;;;3.78;0.63;;;;;;;8.56;67.75;99032.78;10546743;28;20479;-84
2022/04/07 21:04:26;;;;;;;0.75;0.10;;;;;;;8.68;68.11;99039.66;10519445;28;20075;-84
2022/04/07 21:09:29;;;;;;;0.93;0.17;;;;;;;8.73;68.15;99055.09;10540739;28;20036;-84
2022/04/07 21:14:31;;;;;;;0.00;0.00;;;;;;;8.80;67.88;99061.09;10551200;28;20083;-84
2022/04/07 21:19:32;;;;;;;0.10;0.10;;;;;;;8.60;68.56;99061.88;10522142;28;20039;-84
2022/04/07 21:24:34;;;;;;;0.38;0.00;;;;;;;8.70;67.55;99071.34;10563322;28;20416;-85
2022/04/07 21:29:36;;;;;;;1.35;0.30;;;;;;;8.69;68.00;99091.84;10556511;28;20490;-84
2022/04/07 21:34:38;;;;;;;5.28;0.77;;;;;;;8.85;66.88;99109.06;10557461;28;20159;-84
2022/04/07 21:39:44;;;;;;;0.75;0.25;;;;;;;8.91;66.33;99115.06;10557906;28;20491;-85
2022/04/07 21:44:56;;;;;;;0.25;0.20;;;;;;;8.90;66.67;99127.06;10531085;28;20125;-85
2022/04/07 21:50:02;;;;;;;2.22;1.30;;;;;;;8.94;67.02;99135.63;10578417;28;20375;-84
2022/04/07 21:55:03;;;;;;;1.75;1.17;;;;;;;9.12;66.17;99156.22;10557478;28;20039;-84
2022/04/07 22:00:08;;;;;;;0.98;0.20;;;;;;;9.01;65.81;99165.63;10542319;28;20572;-83
2022/04/07 22:05:09;;;;;;;2.40;0.55;;;;;;;9.09;64.97;99176.78;10533972;28;20042;-84
2022/04/07 22:10:13;;;;;;;0.20;0.10;;;;;;;9.04;65.49;99183.63;10534979;28;20564;-84
2022/04/07 22:15:14;;;;;;;0.35;0.10;;;;;;;8.84;65.37;99192.06;10499566;28;20052;-84
2022/04/07 22:20:16;;;;;;;1.27;0.40;;;;;;;8.93;65.77;99196.41;10515521;28;20040;-83
2022/04/07 22:25:20;;;;;;;0.32;0.10;;;;;;;8.87;65.86;99215.22;10534171;28;20040;-84
2022/04/07 22:30:22;;;;;;;1.75;0.15;;;;;;;8.85;65.33;99234.88;10540015;28;20081;-84
2022/04/07 22:35:25;;;;;;;1.75;0.63;;;;;;;8.88;65.68;99242.63;10556767;28;20080;-85
2022/04/07 22:40:27;;;;;;;0.40;0.40;;;;;;;8.82;66.59;99255.44;10557212;28;20071;-84
2022/04/07 22:45:29;;;;;;;0.20;0.10;;;;;;;8.73;67.02;99269.03;10542172;28;20047;-83
2022/04/07 22:50:30;;;;;;;1.00;0.45;;;;;;;8.56;67.42;99281.75;10548219;28;20134;-84
2022/04/07 22:55:33;;;;;;;0.20;0.20;;;;;;;8.48;66.14;99296.25;10563934;28;20063;-86
2022/04/07 23:00:34;;;;;;;0.40;0.00;;;;;;;8.56;67.83;99314.28;10564731;28;20093;-84
2022/04/07 23:05:37;;;;;;;0.13;0.13;;;;;;;8.45;67.02;99331.25;10547326;28;20051;-84
2022/04/07 23:10:38;;;;;;;1.17;0.38;;;;;;;8.18;64.63;99338.69;10563455;28;20039;-85
2022/04/07 23:15:44;;;;;;;6.18;0.52;;;;;;;8.23;64.65;99347.28;10564696;28;20050;-84
2022/04/07 23:20:45;;;;;;;0.25;0.03;;;;;;;8.28;63.88;99365.28;10546667;28;20044;-84
2022/04/07 23:25:47;;;;;;;0.00;0.00;;;;;;;8.03;65.20;99385.56;10564395;28;20054;-82
2022/04/07 23:30:49;;;;;;;0.20;0.13;;;;;;;7.82;65.74;99386.16;10546485;28;20044;-86
2022/04/07 23:35:50;;;;;;;0.10;0.10;;;;;;;7.80;66.47;99407.50;10521295;28;20052;-85
2022/04/07 23:40:52;;;;;;;0.05;0.00;;;;;;;7.87;65.84;99420.41;10562476;28;20075;-82